Accueil
METAR-TAF:

METAR-TAF

Aéroports :

Aéroport international de Bagdad

Bagdad, Irak

latitude: 33-15-45N, longitude: 44-14-04E, altitude: 35 m

Observation

Le bulletin a été fait il y a 15 minutes, à 12:30 UTC
Vent 4 kt de sud-ouest, variant entre sud et ouest
Température 20°C
Humidité 40%
Pression 1020 hPa
Visibilité 10 km ou plus
Quelques nuages à une hauteur de 3500 ft

METAR: ORBI 201230Z 22004KT 180V270 9999 FEW035 20/06 Q1020 NOSIG

Heure: 15:45 (12:45 UTC)

Prévision

Le bulletin a été fait il y a 2 heures et 45 minutes, à 10:00 UTC
Prévision valable du 20 à 12 UTC au 21 à 12 UTC
Vent 12 kt de sud/sud-ouest
Visibilité: 8000 m
Evoluant progressivement
du 20 à 20 UTC au 20 à 22 UTC
Quelques nuages à une hauteur de 2500 ft, Cumulonimbus.
Nuages épars à une hauteur de 3000 ft
(faible

TAF: ORBI 201000Z 2012/2112 21012KT 8000 NSC BECMG 2020/2022 - TSSHRA FEW025CB SCT030

Observations et prévisions météorologiques de plus de 4000 aéroports (messages METAR et TAF).

Les stations disponibles sont représentées par des disques jaunes et rouges sur la carte.

Passer la souris dessus pour voir le nom de la station.

Cliquer dessus pour voir les observations et prévisions météorologiques.

Pour changer de carte: cliquez sur les boutons verts avec une croix noire pour zoomer, sur le bouton vert avec un tiret pour effectuer un zoom arrière, ou sur les flèches vertes pour les cartes adjacentes.


METAR-TAF: